sensor_id;sensor_type;location;lat;lon;timestamp;P1;durP1;ratioP1;P2;durP2;ratioP2
75303;SDS011;64042;50.916;6.988;2023-01-28T00:01:11;4.63;;;2.95;;
75303;SDS011;64042;50.916;6.988;2023-01-28T00:03:38;4.53;;;3.58;;
75303;SDS011;64042;50.916;6.988;2023-01-28T00:06:05;3.88;;;3.22;;
75303;SDS011;64042;50.916;6.988;2023-01-28T00:08:32;3.15;;;2.85;;
75303;SDS011;64042;50.916;6.988;2023-01-28T00:11:00;4.78;;;3.50;;
75303;SDS011;64042;50.916;6.988;2023-01-28T00:13:27;4.13;;;3.38;;
75303;SDS011;64042;50.916;6.988;2023-01-28T00:15:59;3.30;;;3.00;;
75303;SDS011;64042;50.916;6.988;2023-01-28T00:18:26;4.15;;;3.70;;
75303;SDS011;64042;50.916;6.988;2023-01-28T00:21:06;4.68;;;3.40;;
75303;SDS011;64042;50.916;6.988;2023-01-28T00:23:34;3.88;;;3.35;;
75303;SDS011;64042;50.916;6.988;2023-01-28T00:26:01;4.03;;;3.20;;
75303;SDS011;64042;50.916;6.988;2023-01-28T00:28:27;3.50;;;3.20;;
75303;SDS011;64042;50.916;6.988;2023-01-28T00:30:53;3.42;;;3.10;;
75303;SDS011;64042;50.916;6.988;2023-01-28T00:33:18;3.85;;;3.22;;
75303;SDS011;64042;50.916;6.988;2023-01-28T00:35:44;3.83;;;3.53;;
75303;SDS011;64042;50.916;6.988;2023-01-28T00:38:09;2.67;;;2.47;;
75303;SDS011;64042;50.916;6.988;2023-01-28T00:40:34;2.72;;;2.45;;
75303;SDS011;64042;50.916;6.988;2023-01-28T00:43:00;3.00;;;2.70;;
75303;SDS011;64042;50.916;6.988;2023-01-28T00:45:25;3.37;;;2.83;;
75303;SDS011;64042;50.916;6.988;2023-01-28T00:47:50;3.83;;;2.88;;
75303;SDS011;64042;50.916;6.988;2023-01-28T00:50:16;3.35;;;3.05;;
75303;SDS011;64042;50.916;6.988;2023-01-28T00:52:41;4.32;;;3.95;;
75303;SDS011;64042;50.916;6.988;2023-01-28T00:55:07;2.47;;;2.28;;
75303;SDS011;64042;50.916;6.988;2023-01-28T00:57:33;3.05;;;2.75;;
75303;SDS011;64042;50.916;6.988;2023-01-28T00:59:58;3.30;;;3.00;;
75303;SDS011;64042;50.916;6.988;2023-01-28T01:02:24;3.42;;;3.13;;
75303;SDS011;64042;50.916;6.988;2023-01-28T01:04:49;2.78;;;2.50;;
75303;SDS011;64042;50.916;6.988;2023-01-28T01:07:24;4.65;;;4.25;;
75303;SDS011;64042;50.916;6.988;2023-01-28T01:09:59;2.75;;;2.55;;
75303;SDS011;64042;50.916;6.988;2023-01-28T01:12:25;3.03;;;2.60;;
75303;SDS011;64042;50.916;6.988;2023-01-28T01:14:50;2.33;;;2.13;;
75303;SDS011;64042;50.916;6.988;2023-01-28T01:17:15;2.53;;;2.33;;
75303;SDS011;64042;50.916;6.988;2023-01-28T01:19:41;3.20;;;2.88;;
75303;SDS011;64042;50.916;6.988;2023-01-28T01:22:06;2.33;;;2.13;;
75303;SDS011;64042;50.916;6.988;2023-01-28T01:24:32;2.93;;;2.63;;
75303;SDS011;64042;50.916;6.988;2023-01-28T01:26:58;3.20;;;2.70;;
75303;SDS011;64042;50.916;6.988;2023-01-28T01:29:23;4.03;;;3.72;;
75303;SDS011;64042;50.916;6.988;2023-01-28T01:31:49;2.87;;;2.00;;
75303;SDS011;64042;50.916;6.988;2023-01-28T01:34:14;2.30;;;2.10;;
75303;SDS011;64042;50.916;6.988;2023-01-28T01:36:39;2.42;;;2.22;;
75303;SDS011;64042;50.916;6.988;2023-01-28T01:39:08;2.25;;;2.05;;
75303;SDS011;64042;50.916;6.988;2023-01-28T01:41:36;2.95;;;2.72;;
75303;SDS011;64042;50.916;6.988;2023-01-28T01:44:02;3.53;;;3.00;;
75303;SDS011;64042;50.916;6.988;2023-01-28T01:46:31;2.35;;;1.92;;
75303;SDS011;64042;50.916;6.988;2023-01-28T01:49:12;1.83;;;1.70;;
75303;SDS011;64042;50.916;6.988;2023-01-28T01:51:45;2.85;;;2.10;;
75303;SDS011;64042;50.916;6.988;2023-01-28T01:54:12;2.65;;;2.45;;
75303;SDS011;64042;50.916;6.988;2023-01-28T01:56:39;2.13;;;1.92;;
75303;SDS011;64042;50.916;6.988;2023-01-28T01:59:08;3.08;;;2.83;;
75303;SDS011;64042;50.916;6.988;2023-01-28T02:01:37;3.97;;;3.67;;
75303;SDS011;64042;50.916;6.988;2023-01-28T02:04:04;2.78;;;2.58;;
75303;SDS011;64042;50.916;6.988;2023-01-28T02:06:34;2.67;;;2.47;;
75303;SDS011;64042;50.916;6.988;2023-01-28T02:09:00;2.55;;;2.10;;
75303;SDS011;64042;50.916;6.988;2023-01-28T02:11:27;2.88;;;1.85;;
75303;SDS011;64042;50.916;6.988;2023-01-28T02:13:55;2.75;;;2.55;;
75303;SDS011;64042;50.916;6.988;2023-01-28T02:16:22;2.42;;;2.05;;
75303;SDS011;64042;50.916;6.988;2023-01-28T02:18:47;1.92;;;1.75;;
75303;SDS011;64042;50.916;6.988;2023-01-28T02:23:54;2.80;;;2.58;;
75303;SDS011;64042;50.916;6.988;2023-01-28T02:26:45;2.88;;;2.67;;
75303;SDS011;64042;50.916;6.988;2023-01-28T02:32:04;2.72;;;2.53;;
75303;SDS011;64042;50.916;6.988;2023-01-28T02:34:54;2.53;;;2.33;;
75303;SDS011;64042;50.916;6.988;2023-01-28T02:37:26;2.67;;;2.47;;
75303;SDS011;64042;50.916;6.988;2023-01-28T02:39:58;2.10;;;1.88;;
75303;SDS011;64042;50.916;6.988;2023-01-28T02:42:29;2.28;;;2.08;;
75303;SDS011;64042;50.916;6.988;2023-01-28T02:44:56;2.22;;;2.03;;
75303;SDS011;64042;50.916;6.988;2023-01-28T02:47:22;2.17;;;1.98;;
75303;SDS011;64042;50.916;6.988;2023-01-28T02:50:07;2.35;;;2.25;;
75303;SDS011;64042;50.916;6.988;2023-01-28T02:55:56;2.33;;;2.13;;
75303;SDS011;64042;50.916;6.988;2023-01-28T02:58:34;3.08;;;2.70;;
75303;SDS011;64042;50.916;6.988;2023-01-28T03:06:29;2.63;;;2.42;;
75303;SDS011;64042;50.916;6.988;2023-01-28T03:08:59;2.25;;;2.05;;
75303;SDS011;64042;50.916;6.988;2023-01-28T03:11:54;2.53;;;2.33;;
75303;SDS011;64042;50.916;6.988;2023-01-28T03:14:41;1.77;;;1.67;;
75303;SDS011;64042;50.916;6.988;2023-01-28T03:17:37;2.65;;;2.45;;
75303;SDS011;64042;50.916;6.988;2023-01-28T03:20:26;1.90;;;1.80;;
75303;SDS011;64042;50.916;6.988;2023-01-28T03:23:16;1.70;;;1.60;;
75303;SDS011;64042;50.916;6.988;2023-01-28T03:26:04;1.65;;;1.55;;
75303;SDS011;64042;50.916;6.988;2023-01-28T03:28:51;2.03;;;1.88;;
75303;SDS011;64042;50.916;6.988;2023-01-28T03:31:36;1.85;;;1.75;;
75303;SDS011;64042;50.916;6.988;2023-01-28T03:34:20;2.03;;;1.70;;
75303;SDS011;64042;50.916;6.988;2023-01-28T03:37:05;2.40;;;2.20;;
75303;SDS011;64042;50.916;6.988;2023-01-28T03:39:31;2.70;;;2.50;;
75303;SDS011;64042;50.916;6.988;2023-01-28T03:44:28;2.50;;;2.30;;
75303;SDS011;64042;50.916;6.988;2023-01-28T03:47:12;2.03;;;1.92;;
75303;SDS011;64042;50.916;6.988;2023-01-28T03:49:38;2.15;;;1.92;;
75303;SDS011;64042;50.916;6.988;2023-01-28T03:52:05;1.77;;;1.60;;
75303;SDS011;64042;50.916;6.988;2023-01-28T03:54:30;2.03;;;1.92;;
75303;SDS011;64042;50.916;6.988;2023-01-28T03:56:55;2.03;;;1.93;;
75303;SDS011;64042;50.916;6.988;2023-01-28T03:59:20;1.87;;;1.77;;
75303;SDS011;64042;50.916;6.988;2023-01-28T04:01:46;1.70;;;1.60;;
75303;SDS011;64042;50.916;6.988;2023-01-28T04:04:11;2.30;;;2.17;;
75303;SDS011;64042;50.916;6.988;2023-01-28T04:06:47;1.60;;;1.50;;
75303;SDS011;64042;50.916;6.988;2023-01-28T04:09:12;1.98;;;1.85;;
75303;SDS011;64042;50.916;6.988;2023-01-28T04:11:38;1.75;;;1.65;;
75303;SDS011;64042;50.916;6.988;2023-01-28T04:14:03;1.67;;;1.57;;
75303;SDS011;64042;50.916;6.988;2023-01-28T04:16:28;2.03;;;1.90;;
75303;SDS011;64042;50.916;6.988;2023-01-28T04:18:53;1.77;;;1.67;;
75303;SDS011;64042;50.916;6.988;2023-01-28T04:21:19;3.28;;;3.08;;
75303;SDS011;64042;50.916;6.988;2023-01-28T04:23:45;1.92;;;1.83;;
75303;SDS011;64042;50.916;6.988;2023-01-28T04:26:10;1.40;;;1.30;;
75303;SDS011;64042;50.916;6.988;2023-01-28T04:28:35;1.73;;;1.63;;
75303;SDS011;64042;50.916;6.988;2023-01-28T04:31:01;3.60;;;3.40;;
75303;SDS011;64042;50.916;6.988;2023-01-28T04:33:26;1.90;;;1.60;;
75303;SDS011;64042;50.916;6.988;2023-01-28T04:35:51;1.67;;;1.58;;
75303;SDS011;64042;50.916;6.988;2023-01-28T04:38:17;2.55;;;2.35;;
75303;SDS011;64042;50.916;6.988;2023-01-28T04:40:42;2.22;;;2.13;;
75303;SDS011;64042;50.916;6.988;2023-01-28T04:43:07;1.50;;;1.40;;
75303;SDS011;64042;50.916;6.988;2023-01-28T04:45:33;2.03;;;1.83;;
75303;SDS011;64042;50.916;6.988;2023-01-28T04:47:58;1.75;;;1.65;;
75303;SDS011;64042;50.916;6.988;2023-01-28T04:50:25;2.20;;;1.67;;
75303;SDS011;64042;50.916;6.988;2023-01-28T04:52:50;2.05;;;1.27;;
75303;SDS011;64042;50.916;6.988;2023-01-28T04:55:15;1.90;;;1.80;;
75303;SDS011;64042;50.916;6.988;2023-01-28T04:57:41;2.10;;;2.00;;
75303;SDS011;64042;50.916;6.988;2023-01-28T05:00:06;1.60;;;1.50;;
75303;SDS011;64042;50.916;6.988;2023-01-28T05:02:32;1.73;;;1.63;;
75303;SDS011;64042;50.916;6.988;2023-01-28T05:04:57;1.60;;;1.45;;
75303;SDS011;64042;50.916;6.988;2023-01-28T05:07:25;1.95;;;1.85;;
75303;SDS011;64042;50.916;6.988;2023-01-28T05:09:50;1.90;;;1.80;;
75303;SDS011;64042;50.916;6.988;2023-01-28T05:12:16;1.83;;;1.73;;
75303;SDS011;64042;50.916;6.988;2023-01-28T05:14:41;1.83;;;1.73;;
75303;SDS011;64042;50.916;6.988;2023-01-28T05:17:06;1.87;;;1.77;;
75303;SDS011;64042;50.916;6.988;2023-01-28T05:19:31;1.73;;;1.63;;
75303;SDS011;64042;50.916;6.988;2023-01-28T05:21:57;1.48;;;1.38;;
75303;SDS011;64042;50.916;6.988;2023-01-28T05:24:22;2.17;;;1.93;;
75303;SDS011;64042;50.916;6.988;2023-01-28T05:26:47;1.70;;;1.60;;
75303;SDS011;64042;50.916;6.988;2023-01-28T05:29:13;1.60;;;1.50;;
75303;SDS011;64042;50.916;6.988;2023-01-28T05:31:38;1.80;;;1.70;;
75303;SDS011;64042;50.916;6.988;2023-01-28T05:34:03;1.50;;;1.40;;
75303;SDS011;64042;50.916;6.988;2023-01-28T05:36:28;1.60;;;1.50;;
75303;SDS011;64042;50.916;6.988;2023-01-28T05:38:54;1.53;;;1.43;;
75303;SDS011;64042;50.916;6.988;2023-01-28T05:41:19;2.03;;;1.92;;
75303;SDS011;64042;50.916;6.988;2023-01-28T05:43:44;1.25;;;1.17;;
75303;SDS011;64042;50.916;6.988;2023-01-28T05:46:10;2.95;;;2.75;;
75303;SDS011;64042;50.916;6.988;2023-01-28T05:48:35;1.70;;;1.33;;
75303;SDS011;64042;50.916;6.988;2023-01-28T05:51:00;1.45;;;1.35;;
75303;SDS011;64042;50.916;6.988;2023-01-28T05:53:26;1.88;;;1.77;;
75303;SDS011;64042;50.916;6.988;2023-01-28T05:55:51;1.50;;;1.40;;
75303;SDS011;64042;50.916;6.988;2023-01-28T05:58:17;1.67;;;1.58;;
75303;SDS011;64042;50.916;6.988;2023-01-28T06:00:43;1.38;;;1.27;;
75303;SDS011;64042;50.916;6.988;2023-01-28T06:03:08;1.33;;;1.20;;
75303;SDS011;64042;50.916;6.988;2023-01-28T06:05:33;1.60;;;1.50;;
75303;SDS011;64042;50.916;6.988;2023-01-28T06:07:59;1.52;;;1.42;;
75303;SDS011;64042;50.916;6.988;2023-01-28T06:10:24;1.63;;;1.53;;
75303;SDS011;64042;50.916;6.988;2023-01-28T06:12:49;2.45;;;2.35;;
75303;SDS011;64042;50.916;6.988;2023-01-28T06:15:15;1.37;;;1.27;;
75303;SDS011;64042;50.916;6.988;2023-01-28T06:17:40;1.83;;;1.73;;
75303;SDS011;64042;50.916;6.988;2023-01-28T06:20:06;1.33;;;1.23;;
75303;SDS011;64042;50.916;6.988;2023-01-28T06:22:32;2.60;;;2.50;;
75303;SDS011;64042;50.916;6.988;2023-01-28T06:24:58;1.90;;;1.80;;
75303;SDS011;64042;50.916;6.988;2023-01-28T06:27:23;1.93;;;1.83;;
75303;SDS011;64042;50.916;6.988;2023-01-28T06:29:48;1.30;;;1.20;;
75303;SDS011;64042;50.916;6.988;2023-01-28T06:32:14;1.45;;;1.27;;
75303;SDS011;64042;50.916;6.988;2023-01-28T06:34:39;1.50;;;1.40;;
75303;SDS011;64042;50.916;6.988;2023-01-28T06:37:04;1.45;;;1.35;;
75303;SDS011;64042;50.916;6.988;2023-01-28T06:39:30;2.03;;;1.93;;
75303;SDS011;64042;50.916;6.988;2023-01-28T06:41:58;1.25;;;1.15;;
75303;SDS011;64042;50.916;6.988;2023-01-28T06:44:23;1.77;;;1.67;;
75303;SDS011;64042;50.916;6.988;2023-01-28T06:46:49;1.33;;;1.10;;
75303;SDS011;64042;50.916;6.988;2023-01-28T06:49:14;1.17;;;1.08;;
75303;SDS011;64042;50.916;6.988;2023-01-28T06:51:39;1.77;;;1.67;;
75303;SDS011;64042;50.916;6.988;2023-01-28T06:54:05;1.47;;;1.37;;
75303;SDS011;64042;50.916;6.988;2023-01-28T06:56:30;1.27;;;1.17;;
75303;SDS011;64042;50.916;6.988;2023-01-28T06:58:55;1.88;;;1.75;;
75303;SDS011;64042;50.916;6.988;2023-01-28T07:01:21;1.45;;;1.35;;
75303;SDS011;64042;50.916;6.988;2023-01-28T07:03:46;1.63;;;1.53;;
75303;SDS011;64042;50.916;6.988;2023-01-28T07:06:11;1.40;;;1.30;;
75303;SDS011;64042;50.916;6.988;2023-01-28T07:08:36;1.70;;;1.60;;
75303;SDS011;64042;50.916;6.988;2023-01-28T07:11:03;0.98;;;0.98;;
75303;SDS011;64042;50.916;6.988;2023-01-28T07:13:29;1.77;;;1.67;;
75303;SDS011;64042;50.916;6.988;2023-01-28T07:15:54;1.95;;;1.85;;
75303;SDS011;64042;50.916;6.988;2023-01-28T07:18:20;1.55;;;1.45;;
75303;SDS011;64042;50.916;6.988;2023-01-28T07:20:45;1.63;;;1.52;;
75303;SDS011;64042;50.916;6.988;2023-01-28T07:23:10;1.50;;;1.40;;
75303;SDS011;64042;50.916;6.988;2023-01-28T07:25:36;1.35;;;1.33;;
75303;SDS011;64042;50.916;6.988;2023-01-28T07:28:01;1.17;;;1.08;;
75303;SDS011;64042;50.916;6.988;2023-01-28T07:30:27;1.20;;;1.13;;
75303;SDS011;64042;50.916;6.988;2023-01-28T07:32:53;1.40;;;1.30;;
75303;SDS011;64042;50.916;6.988;2023-01-28T07:35:19;1.52;;;1.30;;
75303;SDS011;64042;50.916;6.988;2023-01-28T07:37:55;1.77;;;1.52;;
75303;SDS011;64042;50.916;6.988;2023-01-28T07:40:21;1.17;;;1.02;;
75303;SDS011;64042;50.916;6.988;2023-01-28T07:42:47;1.90;;;1.80;;
75303;SDS011;64042;50.916;6.988;2023-01-28T07:45:13;0.93;;;0.93;;
75303;SDS011;64042;50.916;6.988;2023-01-28T07:47:38;1.80;;;1.70;;
75303;SDS011;64042;50.916;6.988;2023-01-28T07:50:04;1.52;;;1.42;;
75303;SDS011;64042;50.916;6.988;2023-01-28T07:52:29;2.92;;;2.83;;
75303;SDS011;64042;50.916;6.988;2023-01-28T07:54:55;1.58;;;1.48;;
75303;SDS011;64042;50.916;6.988;2023-01-28T07:57:20;1.73;;;1.50;;
75303;SDS011;64042;50.916;6.988;2023-01-28T07:59:49;1.17;;;1.08;;
75303;SDS011;64042;50.916;6.988;2023-01-28T08:02:15;1.85;;;1.75;;
75303;SDS011;64042;50.916;6.988;2023-01-28T08:04:41;1.65;;;1.55;;
75303;SDS011;64042;50.916;6.988;2023-01-28T08:07:06;1.38;;;1.27;;
75303;SDS011;64042;50.916;6.988;2023-01-28T08:09:31;2.37;;;2.27;;
75303;SDS011;64042;50.916;6.988;2023-01-28T08:11:58;2.50;;;2.30;;
75303;SDS011;64042;50.916;6.988;2023-01-28T08:14:24;1.88;;;1.73;;
75303;SDS011;64042;50.916;6.988;2023-01-28T08:16:49;2.00;;;1.80;;
75303;SDS011;64042;50.916;6.988;2023-01-28T08:19:14;1.97;;;1.83;;
75303;SDS011;64042;50.916;6.988;2023-01-28T08:21:42;1.77;;;1.67;;
75303;SDS011;64042;50.916;6.988;2023-01-28T08:24:07;2.20;;;1.57;;
75303;SDS011;64042;50.916;6.988;2023-01-28T08:26:32;6.13;;;1.50;;
75303;SDS011;64042;50.916;6.988;2023-01-28T08:28:58;1.33;;;1.23;;
75303;SDS011;64042;50.916;6.988;2023-01-28T08:31:23;2.07;;;1.80;;
75303;SDS011;64042;50.916;6.988;2023-01-28T08:33:48;2.22;;;2.03;;
75303;SDS011;64042;50.916;6.988;2023-01-28T08:36:13;1.90;;;1.80;;
75303;SDS011;64042;50.916;6.988;2023-01-28T08:38:39;1.67;;;1.55;;
75303;SDS011;64042;50.916;6.988;2023-01-28T08:41:05;2.08;;;1.98;;
75303;SDS011;64042;50.916;6.988;2023-01-28T08:43:30;1.97;;;1.87;;
75303;SDS011;64042;50.916;6.988;2023-01-28T08:45:56;1.83;;;1.63;;
75303;SDS011;64042;50.916;6.988;2023-01-28T08:48:21;2.10;;;2.00;;
75303;SDS011;64042;50.916;6.988;2023-01-28T08:50:46;2.08;;;1.98;;
75303;SDS011;64042;50.916;6.988;2023-01-28T08:53:13;2.05;;;1.95;;
75303;SDS011;64042;50.916;6.988;2023-01-28T08:55:43;1.85;;;1.75;;
75303;SDS011;64042;50.916;6.988;2023-01-28T08:58:10;1.95;;;1.85;;
75303;SDS011;64042;50.916;6.988;2023-01-28T09:00:36;1.73;;;1.63;;
75303;SDS011;64042;50.916;6.988;2023-01-28T09:03:02;1.42;;;1.33;;
75303;SDS011;64042;50.916;6.988;2023-01-28T09:05:28;2.17;;;2.00;;
75303;SDS011;64042;50.916;6.988;2023-01-28T09:07:54;2.00;;;1.40;;
75303;SDS011;64042;50.916;6.988;2023-01-28T09:10:19;1.90;;;1.67;;
75303;SDS011;64042;50.916;6.988;2023-01-28T09:12:44;1.55;;;1.45;;
75303;SDS011;64042;50.916;6.988;2023-01-28T09:15:10;1.38;;;1.27;;
75303;SDS011;64042;50.916;6.988;2023-01-28T09:17:35;1.77;;;1.67;;
75303;SDS011;64042;50.916;6.988;2023-01-28T09:20:01;2.60;;;2.45;;
75303;SDS011;64042;50.916;6.988;2023-01-28T09:22:26;3.15;;;3.05;;
75303;SDS011;64042;50.916;6.988;2023-01-28T09:24:51;1.52;;;1.25;;
75303;SDS011;64042;50.916;6.988;2023-01-28T09:27:17;1.60;;;1.50;;
75303;SDS011;64042;50.916;6.988;2023-01-28T09:29:43;1.52;;;1.42;;
75303;SDS011;64042;50.916;6.988;2023-01-28T09:32:08;1.60;;;1.23;;
75303;SDS011;64042;50.916;6.988;2023-01-28T09:34:33;1.52;;;1.42;;
75303;SDS011;64042;50.916;6.988;2023-01-28T09:36:58;1.13;;;1.05;;
75303;SDS011;64042;50.916;6.988;2023-01-28T09:39:24;2.15;;;1.70;;
75303;SDS011;64042;50.916;6.988;2023-01-28T09:47:03;2.17;;;2.08;;
75303;SDS011;64042;50.916;6.988;2023-01-28T09:51:58;2.17;;;1.98;;
75303;SDS011;64042;50.916;6.988;2023-01-28T09:59:19;1.65;;;1.30;;
75303;SDS011;64042;50.916;6.988;2023-01-28T10:01:52;2.33;;;2.20;;
75303;SDS011;64042;50.916;6.988;2023-01-28T10:07:19;1.75;;;1.65;;
75303;SDS011;64042;50.916;6.988;2023-01-28T10:10:00;1.48;;;1.38;;
75303;SDS011;64042;50.916;6.988;2023-01-28T10:12:43;1.77;;;1.67;;
75303;SDS011;64042;50.916;6.988;2023-01-28T10:18:01;1.85;;;1.75;;
75303;SDS011;64042;50.916;6.988;2023-01-28T10:20:30;1.73;;;1.63;;
75303;SDS011;64042;50.916;6.988;2023-01-28T10:23:05;1.92;;;1.20;;
75303;SDS011;64042;50.916;6.988;2023-01-28T10:25:35;1.48;;;1.38;;
75303;SDS011;64042;50.916;6.988;2023-01-28T10:28:01;1.48;;;1.38;;
75303;SDS011;64042;50.916;6.988;2023-01-28T10:30:29;1.67;;;1.58;;
75303;SDS011;64042;50.916;6.988;2023-01-28T10:33:38;1.88;;;1.77;;
75303;SDS011;64042;50.916;6.988;2023-01-28T10:36:04;1.67;;;1.58;;
75303;SDS011;64042;50.916;6.988;2023-01-28T10:38:30;1.75;;;1.65;;
75303;SDS011;64042;50.916;6.988;2023-01-28T10:40:57;1.65;;;1.55;;
75303;SDS011;64042;50.916;6.988;2023-01-28T10:43:25;1.70;;;1.60;;
75303;SDS011;64042;50.916;6.988;2023-01-28T10:46:09;1.05;;;1.05;;
75303;SDS011;64042;50.916;6.988;2023-01-28T10:48:41;1.70;;;1.60;;
75303;SDS011;64042;50.916;6.988;2023-01-28T10:51:31;1.42;;;1.33;;
75303;SDS011;64042;50.916;6.988;2023-01-28T10:53:57;2.65;;;1.38;;
75303;SDS011;64042;50.916;6.988;2023-01-28T10:56:27;1.63;;;1.33;;
75303;SDS011;64042;50.916;6.988;2023-01-28T11:04:13;4.20;;;2.40;;
75303;SDS011;64042;50.916;6.988;2023-01-28T11:07:13;6.88;;;1.63;;
75303;SDS011;64042;50.916;6.988;2023-01-28T11:09:44;9.30;;;2.65;;
75303;SDS011;64042;50.916;6.988;2023-01-28T11:12:12;4.82;;;2.03;;
75303;SDS011;64042;50.916;6.988;2023-01-28T11:14:50;9.52;;;2.70;;
75303;SDS011;64042;50.916;6.988;2023-01-28T11:17:16;7.93;;;2.30;;
75303;SDS011;64042;50.916;6.988;2023-01-28T11:19:42;4.85;;;1.55;;
75303;SDS011;64042;50.916;6.988;2023-01-28T11:22:22;7.10;;;1.70;;
75303;SDS011;64042;50.916;6.988;2023-01-28T11:24:51;6.15;;;1.88;;
75303;SDS011;64042;50.916;6.988;2023-01-28T11:27:17;6.75;;;2.22;;
75303;SDS011;64042;50.916;6.988;2023-01-28T11:29:43;5.45;;;2.85;;
75303;SDS011;64042;50.916;6.988;2023-01-28T11:32:15;4.55;;;1.88;;
75303;SDS011;64042;50.916;6.988;2023-01-28T11:34:47;5.85;;;1.95;;
75303;SDS011;64042;50.916;6.988;2023-01-28T11:37:19;11.48;;;1.85;;
75303;SDS011;64042;50.916;6.988;2023-01-28T11:39:46;4.72;;;2.05;;
75303;SDS011;64042;50.916;6.988;2023-01-28T11:42:17;4.35;;;1.90;;
75303;SDS011;64042;50.916;6.988;2023-01-28T11:44:43;6.13;;;2.35;;
75303;SDS011;64042;50.916;6.988;2023-01-28T11:47:21;6.82;;;2.47;;
75303;SDS011;64042;50.916;6.988;2023-01-28T11:52:42;6.32;;;1.95;;
75303;SDS011;64042;50.916;6.988;2023-01-28T12:00:51;4.45;;;1.85;;
75303;SDS011;64042;50.916;6.988;2023-01-28T12:03:39;6.35;;;2.38;;
75303;SDS011;64042;50.916;6.988;2023-01-28T12:06:35;5.07;;;2.90;;
75303;SDS011;64042;50.916;6.988;2023-01-28T12:14:47;9.15;;;3.05;;
75303;SDS011;64042;50.916;6.988;2023-01-28T12:22:45;7.18;;;2.65;;
75303;SDS011;64042;50.916;6.988;2023-01-28T12:33:52;4.03;;;2.42;;
75303;SDS011;64042;50.916;6.988;2023-01-28T12:36:28;4.43;;;2.47;;
75303;SDS011;64042;50.916;6.988;2023-01-28T12:42:09;7.75;;;3.42;;
75303;SDS011;64042;50.916;6.988;2023-01-28T12:44:39;4.95;;;3.13;;
75303;SDS011;64042;50.916;6.988;2023-01-28T12:47:09;4.47;;;3.05;;
75303;SDS011;64042;50.916;6.988;2023-01-28T12:52:14;5.72;;;3.08;;
75303;SDS011;64042;50.916;6.988;2023-01-28T12:57:30;4.82;;;3.38;;
75303;SDS011;64042;50.916;6.988;2023-01-28T13:03:46;5.03;;;4.05;;
75303;SDS011;64042;50.916;6.988;2023-01-28T13:05:58;5.32;;;4.00;;
75303;SDS011;64042;50.916;6.988;2023-01-28T13:08:26;5.05;;;3.08;;
75303;SDS011;64042;50.916;6.988;2023-01-28T13:10:52;5.20;;;4.22;;
75303;SDS011;64042;50.916;6.988;2023-01-28T13:13:37;6.07;;;3.90;;
75303;SDS011;64042;50.916;6.988;2023-01-28T13:16:06;7.50;;;5.13;;
75303;SDS011;64042;50.916;6.988;2023-01-28T13:18:43;5.50;;;4.10;;
75303;SDS011;64042;50.916;6.988;2023-01-28T13:21:14;5.97;;;4.20;;
75303;SDS011;64042;50.916;6.988;2023-01-28T13:26:26;4.57;;;3.67;;
75303;SDS011;64042;50.916;6.988;2023-01-28T13:29:59;4.63;;;3.75;;
75303;SDS011;64042;50.916;6.988;2023-01-28T13:31:56;3.95;;;3.22;;
75303;SDS011;64042;50.916;6.988;2023-01-28T13:34:28;4.47;;;3.45;;
75303;SDS011;64042;50.916;6.988;2023-01-28T13:36:54;4.10;;;3.65;;
75303;SDS011;64042;50.916;6.988;2023-01-28T13:39:20;5.70;;;3.65;;
75303;SDS011;64042;50.916;6.988;2023-01-28T13:41:47;4.82;;;3.78;;
75303;SDS011;64042;50.916;6.988;2023-01-28T13:44:17;4.13;;;3.72;;
75303;SDS011;64042;50.916;6.988;2023-01-28T13:46:44;5.80;;;3.72;;
75303;SDS011;64042;50.916;6.988;2023-01-28T13:49:11;4.82;;;3.30;;
75303;SDS011;64042;50.916;6.988;2023-01-28T13:51:40;4.30;;;3.90;;
75303;SDS011;64042;50.916;6.988;2023-01-28T13:54:19;4.25;;;3.85;;
75303;SDS011;64042;50.916;6.988;2023-01-28T14:05:23;4.05;;;3.10;;
75303;SDS011;64042;50.916;6.988;2023-01-28T14:10:16;3.80;;;3.40;;
75303;SDS011;64042;50.916;6.988;2023-01-28T14:18:31;3.88;;;3.58;;
75303;SDS011;64042;50.916;6.988;2023-01-28T14:21:00;4.15;;;3.67;;
75303;SDS011;64042;50.916;6.988;2023-01-28T14:23:26;3.75;;;3.45;;
75303;SDS011;64042;50.916;6.988;2023-01-28T14:30:59;4.22;;;3.63;;
75303;SDS011;64042;50.916;6.988;2023-01-28T14:33:30;4.40;;;3.95;;
75303;SDS011;64042;50.916;6.988;2023-01-28T14:35:56;4.13;;;3.72;;
75303;SDS011;64042;50.916;6.988;2023-01-28T14:38:21;3.57;;;3.27;;
75303;SDS011;64042;50.916;6.988;2023-01-28T14:40:48;3.95;;;3.20;;
75303;SDS011;64042;50.916;6.988;2023-01-28T14:43:17;5.57;;;3.67;;
75303;SDS011;64042;50.916;6.988;2023-01-28T14:48:20;4.13;;;3.83;;
75303;SDS011;64042;50.916;6.988;2023-01-28T14:51:01;4.43;;;4.05;;
75303;SDS011;64042;50.916;6.988;2023-01-28T14:59:02;4.45;;;3.58;;
75303;SDS011;64042;50.916;6.988;2023-01-28T15:01:41;5.03;;;2.88;;
75303;SDS011;64042;50.916;6.988;2023-01-28T15:04:20;4.57;;;3.47;;
75303;SDS011;64042;50.916;6.988;2023-01-28T15:06:47;4.03;;;3.65;;
75303;SDS011;64042;50.916;6.988;2023-01-28T15:09:12;5.47;;;3.53;;
75303;SDS011;64042;50.916;6.988;2023-01-28T15:11:39;5.05;;;3.50;;
75303;SDS011;64042;50.916;6.988;2023-01-28T15:14:11;4.53;;;3.80;;
75303;SDS011;64042;50.916;6.988;2023-01-28T15:16:38;3.63;;;3.28;;
75303;SDS011;64042;50.916;6.988;2023-01-28T15:19:05;4.28;;;3.85;;
75303;SDS011;64042;50.916;6.988;2023-01-28T15:21:31;6.13;;;4.03;;
75303;SDS011;64042;50.916;6.988;2023-01-28T15:23:59;5.47;;;3.65;;
75303;SDS011;64042;50.916;6.988;2023-01-28T15:26:29;4.97;;;4.07;;
75303;SDS011;64042;50.916;6.988;2023-01-28T15:28:56;6.18;;;4.55;;
75303;SDS011;64042;50.916;6.988;2023-01-28T15:31:23;5.95;;;3.88;;
75303;SDS011;64042;50.916;6.988;2023-01-28T15:34:08;8.32;;;3.67;;
75303;SDS011;64042;50.916;6.988;2023-01-28T15:36:36;4.78;;;3.67;;
75303;SDS011;64042;50.916;6.988;2023-01-28T15:39:02;4.05;;;3.65;;
75303;SDS011;64042;50.916;6.988;2023-01-28T15:41:31;4.97;;;3.28;;
75303;SDS011;64042;50.916;6.988;2023-01-28T15:43:58;4.00;;;3.33;;
75303;SDS011;64042;50.916;6.988;2023-01-28T15:46:24;6.20;;;3.85;;
75303;SDS011;64042;50.916;6.988;2023-01-28T15:48:54;4.20;;;3.70;;
75303;SDS011;64042;50.916;6.988;2023-01-28T15:51:26;3.88;;;3.30;;
75303;SDS011;64042;50.916;6.988;2023-01-28T15:53:55;3.92;;;3.63;;
75303;SDS011;64042;50.916;6.988;2023-01-28T15:58:49;3.63;;;3.33;;
75303;SDS011;64042;50.916;6.988;2023-01-28T16:01:15;3.53;;;3.23;;
75303;SDS011;64042;50.916;6.988;2023-01-28T16:03:42;4.22;;;3.83;;
75303;SDS011;64042;50.916;6.988;2023-01-28T16:06:13;3.47;;;3.20;;
75303;SDS011;64042;50.916;6.988;2023-01-28T16:11:11;4.40;;;4.10;;
75303;SDS011;64042;50.916;6.988;2023-01-28T16:13:40;3.30;;;3.00;;
75303;SDS011;64042;50.916;6.988;2023-01-28T16:16:06;8.23;;;3.50;;
75303;SDS011;64042;50.916;6.988;2023-01-28T16:18:40;3.95;;;3.08;;
75303;SDS011;64042;50.916;6.988;2023-01-28T16:21:09;4.10;;;3.78;;
75303;SDS011;64042;50.916;6.988;2023-01-28T16:23:36;3.70;;;3.40;;
75303;SDS011;64042;50.916;6.988;2023-01-28T16:26:17;4.20;;;3.60;;
75303;SDS011;64042;50.916;6.988;2023-01-28T16:28:45;4.05;;;3.75;;
75303;SDS011;64042;50.916;6.988;2023-01-28T16:31:10;4.03;;;3.50;;
75303;SDS011;64042;50.916;6.988;2023-01-28T16:33:35;3.58;;;2.92;;
75303;SDS011;64042;50.916;6.988;2023-01-28T16:36:01;3.45;;;3.13;;
75303;SDS011;64042;50.916;6.988;2023-01-28T16:38:26;3.63;;;3.33;;
75303;SDS011;64042;50.916;6.988;2023-01-28T16:40:51;3.83;;;3.43;;
75303;SDS011;64042;50.916;6.988;2023-01-28T16:43:16;3.92;;;3.53;;
75303;SDS011;64042;50.916;6.988;2023-01-28T16:45:42;3.33;;;2.90;;
75303;SDS011;64042;50.916;6.988;2023-01-28T16:48:07;3.35;;;3.05;;
75303;SDS011;64042;50.916;6.988;2023-01-28T16:50:32;4.10;;;3.13;;
75303;SDS011;64042;50.916;6.988;2023-01-28T16:52:59;3.50;;;3.20;;
75303;SDS011;64042;50.916;6.988;2023-01-28T16:55:24;4.57;;;3.50;;